Time;durP1;ratioP1;P1;durP2;ratioP2;P2;SDS_P1;SDS_P2;PMS_P1;PMS_P2;Temp;Humidity;BMP_temperature;BMP_pressure;BME280_temperature;BME280_humidity;BME280_pressure;Samples;Min_cycle;Max_cycle;Signal;HPM_P1;HPM_P2
2021/08/09 00:00:40;;;;;;;16.87;4.45;;;;;;;;;;4361477;32;20155;-78
2021/08/09 00:03:35;;;;;;;;;;;;;;;;;;;;;
2021/08/09 00:06:11;;;;;;;12.23;3.67;;;;;;;;;;4358906;33;20160;-78
2021/08/09 00:08:49;;;;;;;18.40;3.40;;;;;;;;;;4362262;32;20127;-79
2021/08/09 00:11:14;;;;;;;14.00;3.60;;;;;;;;;;4348254;33;20221;-79
2021/08/09 00:13:47;;;;;;;18.42;3.83;;;;;;;;;;4348637;33;20234;-79
2021/08/09 00:16:12;;;;;;;8.85;3.08;;;;;;;;;;4361588;32;20583;-78
2021/08/09 00:18:41;;;;;;;13.52;3.50;;;;;;;;;;4360636;32;20152;-78
2021/08/09 00:21:07;;;;;;;10.38;3.50;;;;;;;;;;4348001;33;20212;-78
2021/08/09 00:23:32;;;;;;;12.93;3.28;;;;;;;;;;4361571;32;20138;-78
2021/08/09 00:25:57;;;;;;;14.07;3.85;;;;;;;;;;4360374;32;20209;-77
2021/08/09 00:28:22;;;;;;;14.63;3.87;;;;;;;;;;4361870;32;20580;-77
2021/08/09 00:30:47;;;;;;;15.23;3.42;;;;;;;;;;4361800;32;20229;-77
2021/08/09 00:33:13;;;;;;;10.68;3.50;;;;;;;;;;4361543;32;20190;-77
2021/08/09 00:35:38;;;;;;;12.73;3.53;;;;;;;;;;4360530;32;20198;-77
2021/08/09 00:38:12;;;;;;;18.05;3.22;;;;;;;;;;4361854;32;20167;-77
2021/08/09 00:40:37;;;;;;;17.05;3.80;;;;;;;;;;4347779;33;20159;-77
2021/08/09 00:43:05;;;;;;;12.65;3.45;;;;;;;;;;4347076;33;20174;-78
2021/08/09 00:45:31;;;;;;;19.73;3.30;;;;;;;;;;4360777;32;20178;-78
2021/08/09 00:47:57;;;;;;;13.62;3.40;;;;;;;;;;4360207;32;20533;-78
2021/08/09 00:50:25;;;;;;;15.13;4.28;;;;;;;;;;4360096;32;20237;-78
2021/08/09 00:52:53;;;;;;;16.50;3.90;;;;;;;;;;4359847;32;20163;-78
2021/08/09 00:55:18;;;;;;;12.32;3.60;;;;;;;;;;4360460;32;20136;-77
2021/08/09 00:57:46;;;;;;;13.13;3.70;;;;;;;;;;4361365;32;20201;-77
2021/08/09 01:00:11;;;;;;;14.20;3.83;;;;;;;;;;4360432;32;20238;-78
2021/08/09 01:02:37;;;;;;;15.07;3.53;;;;;;;;;;4361053;32;20143;-77
2021/08/09 01:05:03;;;;;;;14.50;3.53;;;;;;;;;;4360246;32;20155;-78
2021/08/09 01:07:32;;;;;;;17.37;3.67;;;;;;;;;;4347356;33;20155;-78
2021/08/09 01:10:13;;;;;;;14.68;3.83;;;;;;;;;;4347207;33;20201;-78
2021/08/09 01:12:57;;;;;;;14.25;3.62;;;;;;;;;;4347377;33;20492;-78
2021/08/09 01:15:28;;;;;;;13.00;3.30;;;;;;;;;;4360188;32;20190;-78
2021/08/09 01:18:04;;;;;;;15.75;3.50;;;;;;;;;;4347768;33;20196;-77
2021/08/09 01:20:51;;;;;;;15.13;3.70;;;;;;;;;;4360805;33;20167;-77
2021/08/09 01:23:35;;;;;;;15.48;3.70;;;;;;;;;;4359548;32;20158;-78
2021/08/09 01:26:08;;;;;;;13.55;3.50;;;;;;;;;;4372424;32;20244;-77
2021/08/09 01:28:36;;;;;;;17.15;3.72;;;;;;;;;;4359452;33;20167;-78
2021/08/09 01:31:02;;;;;;;17.10;4.30;;;;;;;;;;4359916;32;20159;-78
2021/08/09 01:33:31;;;;;;;15.70;3.87;;;;;;;;;;4359429;32;20281;-78
2021/08/09 01:35:58;;;;;;;14.23;3.75;;;;;;;;;;4360004;32;20155;-79
2021/08/09 01:38:24;;;;;;;13.05;3.40;;;;;;;;;;4359375;32;20269;-78
2021/08/09 01:40:51;;;;;;;17.02;4.07;;;;;;;;;;4359779;32;20151;-78
2021/08/09 01:43:17;;;;;;;17.30;4.15;;;;;;;;;;4359141;32;20217;-78
2021/08/09 01:45:43;;;;;;;17.08;3.80;;;;;;;;;;4359628;32;20159;-78
2021/08/09 01:48:09;;;;;;;17.33;4.62;;;;;;;;;;4360257;32;20192;-78
2021/08/09 01:50:44;;;;;;;20.52;3.90;;;;;;;;;;4359076;33;20198;-78
2021/08/09 01:53:09;;;;;;;19.17;3.87;;;;;;;;;;4358840;33;20166;-78
2021/08/09 01:55:35;;;;;;;18.35;3.97;;;;;;;;;;4360636;32;20480;-78
2021/08/09 01:58:00;;;;;;;15.07;4.12;;;;;;;;;;4359051;33;20631;-78
2021/08/09 02:00:28;;;;;;;17.65;3.10;;;;;;;;;;4359600;32;20159;-78
2021/08/09 02:02:56;;;;;;;18.25;3.85;;;;;;;;;;4359221;32;20277;-77
2021/08/09 02:05:23;;;;;;;16.45;3.40;;;;;;;;;;4359030;32;20155;-77
2021/08/09 02:07:49;;;;;;;14.93;3.40;;;;;;;;;;4358994;32;20163;-77
2021/08/09 02:10:19;;;;;;;20.27;3.70;;;;;;;;;;4359367;33;20213;-78
2021/08/09 02:12:58;;;;;;;20.98;4.00;;;;;;;;;;4358575;33;20194;-77
2021/08/09 02:15:32;;;;;;;13.15;3.20;;;;;;;;;;4359451;33;20544;-78
2021/08/09 02:18:01;;;;;;;15.30;3.65;;;;;;;;;;4360646;33;20131;-78
2021/08/09 02:20:37;;;;;;;20.25;3.05;;;;;;;;;;4361422;33;20350;-78
2021/08/09 02:23:04;;;;;;;15.45;3.15;;;;;;;;;;4359093;33;20200;-78
2021/08/09 02:25:32;;;;;;;15.73;3.37;;;;;;;;;;4347029;33;20167;-78
2021/08/09 02:28:11;;;;;;;15.65;3.87;;;;;;;;;;4359280;33;20234;-78
2021/08/09 02:30:45;;;;;;;12.65;3.28;;;;;;;;;;4346903;33;20170;-79
2021/08/09 02:33:23;;;;;;;14.57;3.12;;;;;;;;;;4359014;33;20151;-78
2021/08/09 02:35:50;;;;;;;15.50;2.95;;;;;;;;;;4358877;33;20159;-78
2021/08/09 02:38:16;;;;;;;15.13;3.78;;;;;;;;;;4359423;33;20183;-77
2021/08/09 02:40:41;;;;;;;14.55;3.30;;;;;;;;;;4358937;33;20202;-78
2021/08/09 02:43:07;;;;;;;15.45;3.33;;;;;;;;;;4358582;33;20200;-78
2021/08/09 02:45:34;;;;;;;15.05;3.70;;;;;;;;;;4359211;33;20182;-78
2021/08/09 02:48:00;;;;;;;11.15;3.10;;;;;;;;;;4359900;33;20250;-77
2021/08/09 02:50:25;;;;;;;16.90;3.67;;;;;;;;;;4359054;33;20163;-77
2021/08/09 02:52:51;;;;;;;15.23;3.20;;;;;;;;;;4358666;33;20220;-77
2021/08/09 02:55:18;;;;;;;16.27;3.85;;;;;;;;;;4358929;33;20185;-78
2021/08/09 02:57:44;;;;;;;11.27;3.60;;;;;;;;;;4358645;33;20167;-77
2021/08/09 03:00:09;;;;;;;11.32;3.45;;;;;;;;;;4359099;33;20155;-77
2021/08/09 03:02:43;;;;;;;12.07;3.75;;;;;;;;;;4346642;33;20594;-77
2021/08/09 03:07:59;;;;;;;18.62;3.87;;;;;;;;;;4351282;33;20156;-77
2021/08/09 03:10:24;;;;;;;10.45;3.17;;;;;;;;;;4358779;33;20324;-77
2021/08/09 03:12:58;;;;;;;11.12;3.22;;;;;;;;;;4359058;33;20536;-77
2021/08/09 03:15:24;;;;;;;18.50;4.40;;;;;;;;;;4358835;33;20158;-77
2021/08/09 03:17:52;;;;;;;16.62;3.85;;;;;;;;;;4360860;33;20575;-77
2021/08/09 03:20:20;;;;;;;10.95;4.20;;;;;;;;;;4358718;33;20156;-77
2021/08/09 03:22:46;;;;;;;17.10;3.95;;;;;;;;;;4358514;33;20225;-77
2021/08/09 03:25:11;;;;;;;15.23;3.58;;;;;;;;;;4360750;32;20127;-77
2021/08/09 03:27:36;;;;;;;17.45;3.80;;;;;;;;;;4361197;32;20506;-77
2021/08/09 03:30:01;;;;;;;17.52;4.18;;;;;;;;;;4361078;32;20159;-77
2021/08/09 03:32:33;;;;;;;15.63;3.67;;;;;;;;;;4361439;32;20177;-77
2021/08/09 03:35:00;;;;;;;17.20;4.15;;;;;;;;;;4361000;32;20182;-78
2021/08/09 03:37:35;;;;;;;;;;;;;;;;;;;;;
2021/08/09 03:40:00;;;;;;;10.90;3.70;;;;;;;;;;4362622;32;20169;-78
2021/08/09 03:42:26;;;;;;;17.12;3.97;;;;;;;;;;4348596;33;20163;-78
2021/08/09 03:44:53;;;;;;;14.95;4.10;;;;;;;;;;4362259;32;20250;-78
2021/08/09 03:47:19;;;;;;;10.35;3.60;;;;;;;;;;4349204;33;20525;-78
2021/08/09 03:49:44;;;;;;;19.62;4.70;;;;;;;;;;4362352;32;20524;-75
2021/08/09 03:52:09;;;;;;;11.95;3.20;;;;;;;;;;4360845;32;20186;-77
2021/08/09 03:54:44;;;;;;;16.33;4.22;;;;;;;;;;4360716;32;20213;-77
2021/08/09 04:00:37;;;;;;;16.48;3.50;;;;;;;;;;4344848;33;20163;-78
2021/08/09 04:03:06;;;;;;;15.50;3.37;;;;;;;;;;4321316;33;20178;-77
2021/08/09 04:05:33;;;;;;;14.38;3.42;;;;;;;;;;4360650;33;20171;-78
2021/08/09 04:08:21;;;;;;;11.32;3.55;;;;;;;;;;4360827;32;20186;-78
2021/08/09 04:10:47;;;;;;;14.32;3.78;;;;;;;;;;4360725;33;20164;-77
2021/08/09 04:13:17;;;;;;;16.05;3.67;;;;;;;;;;4360537;32;20226;-77
2021/08/09 04:15:43;;;;;;;17.30;3.75;;;;;;;;;;4357626;32;20194;-77
2021/08/09 04:18:11;;;;;;;20.65;4.37;;;;;;;;;;4333555;33;20465;-77
2021/08/09 04:20:41;;;;;;;18.45;3.87;;;;;;;;;;4357999;32;20155;-77
2021/08/09 04:23:16;;;;;;;16.40;3.87;;;;;;;;;;4345200;33;20189;-78
2021/08/09 04:25:48;;;;;;;15.10;3.80;;;;;;;;;;4343209;33;20220;-78
2021/08/09 04:28:13;;;;;;;18.45;4.32;;;;;;;;;;4348614;33;20182;-78
2021/08/09 04:30:39;;;;;;;17.55;3.45;;;;;;;;;;4347867;33;20202;-78
2021/08/09 04:33:07;;;;;;;11.93;3.12;;;;;;;;;;4360392;32;20240;-79
2021/08/09 04:35:35;;;;;;;13.25;3.65;;;;;;;;;;4361569;32;20146;-79
2021/08/09 04:38:01;;;;;;;17.92;4.35;;;;;;;;;;4360497;33;20504;-79
2021/08/09 04:40:26;;;;;;;17.45;4.03;;;;;;;;;;4360547;33;20163;-78
2021/08/09 04:42:51;;;;;;;16.85;4.62;;;;;;;;;;4360179;32;20170;-78
2021/08/09 04:45:40;;;;;;;18.12;3.90;;;;;;;;;;4360744;32;20512;-77
2021/08/09 04:48:05;;;;;;;13.82;3.58;;;;;;;;;;4361396;33;20221;-78
2021/08/09 04:50:55;;;;;;;10.15;2.70;;;;;;;;;;4347841;33;20160;-78
2021/08/09 04:56:16;;;;;;;15.15;3.65;;;;;;;;;;4299592;33;20186;-77
2021/08/09 04:58:50;;;;;;;9.05;3.35;;;;;;;;;;4352624;33;20181;-77
2021/08/09 05:01:24;;;;;;;17.00;3.25;;;;;;;;;;4347478;33;20210;-79
2021/08/09 05:03:59;;;;;;;11.85;3.10;;;;;;;;;;4361602;32;20189;-78
2021/08/09 05:06:24;;;;;;;15.88;2.92;;;;;;;;;;4347465;33;20224;-78
2021/08/09 05:09:04;;;;;;;;;;;;;;;;;;;;;
2021/08/09 05:11:35;;;;;;;13.52;3.08;;;;;;;;;;4357942;33;20178;-79
2021/08/09 05:14:01;;;;;;;16.55;3.58;;;;;;;;;;4359456;32;20162;-78
2021/08/09 05:19:31;;;;;;;10.25;2.87;;;;;;;;;;4361193;32;20530;-76
2021/08/09 05:21:56;;;;;;;14.55;3.33;;;;;;;;;;4347527;33;20139;-78
2021/08/09 05:24:28;;;;;;;12.35;3.12;;;;;;;;;;4347025;33;20201;-78
2021/08/09 05:26:55;;;;;;;16.48;3.42;;;;;;;;;;4359464;33;20191;-78
2021/08/09 05:29:42;;;;;;;13.23;3.37;;;;;;;;;;4346935;33;20163;-78
2021/08/09 05:32:07;;;;;;;12.98;3.15;;;;;;;;;;4360404;33;20159;-79
2021/08/09 05:34:46;;;;;;;13.93;3.75;;;;;;;;;;4359299;32;20190;-79
2021/08/09 05:37:20;;;;;;;12.55;3.80;;;;;;;;;;4359024;32;20234;-77
2021/08/09 05:39:54;;;;;;;11.88;3.65;;;;;;;;;;4347176;33;20185;-78
2021/08/09 05:42:25;;;;;;;20.35;4.20;;;;;;;;;;4360588;32;20209;-77
2021/08/09 05:44:50;;;;;;;14.68;3.12;;;;;;;;;;4357511;33;20167;-78
2021/08/09 05:47:23;;;;;;;15.23;3.60;;;;;;;;;;4358834;32;20178;-78
2021/08/09 05:49:49;;;;;;;11.95;3.33;;;;;;;;;;4360170;33;20140;-76
2021/08/09 05:52:19;;;;;;;14.00;2.72;;;;;;;;;;4354129;33;20179;-77
2021/08/09 05:54:52;;;;;;;15.43;3.30;;;;;;;;;;4359489;33;20521;-78
2021/08/09 05:57:17;;;;;;;13.95;3.03;;;;;;;;;;4347631;33;20239;-78
2021/08/09 05:59:45;;;;;;;13.48;3.90;;;;;;;;;;4347100;33;20242;-78
2021/08/09 06:02:12;;;;;;;11.35;2.95;;;;;;;;;;4358883;32;20156;-76
2021/08/09 06:04:37;;;;;;;12.63;3.00;;;;;;;;;;4347104;33;20159;-78
2021/08/09 06:07:06;;;;;;;8.95;3.03;;;;;;;;;;4346574;33;20186;-78
2021/08/09 06:09:33;;;;;;;9.77;2.85;;;;;;;;;;4346483;33;20168;-78
2021/08/09 06:12:01;;;;;;;12.45;3.78;;;;;;;;;;4347125;33;20159;-79
2021/08/09 06:14:26;;;;;;;13.02;3.70;;;;;;;;;;4346574;33;20159;-77
2021/08/09 06:16:51;;;;;;;11.57;3.35;;;;;;;;;;4360772;33;20209;-78
2021/08/09 06:19:19;;;;;;;10.93;3.00;;;;;;;;;;4346284;33;20155;-79
2021/08/09 06:22:09;;;;;;;8.85;3.03;;;;;;;;;;4345449;33;20226;-78
2021/08/09 06:24:42;;;;;;;10.77;2.80;;;;;;;;;;4360067;33;20159;-79
2021/08/09 06:27:15;;;;;;;8.77;2.58;;;;;;;;;;4347006;33;20210;-78
2021/08/09 06:29:40;;;;;;;9.77;2.62;;;;;;;;;;4346840;33;20174;-79
2021/08/09 06:32:05;;;;;;;13.95;3.22;;;;;;;;;;4353115;32;20201;-78
2021/08/09 06:34:30;;;;;;;9.48;3.05;;;;;;;;;;4346439;33;20201;-78
2021/08/09 06:36:56;;;;;;;9.63;2.72;;;;;;;;;;4357219;33;20816;-78
2021/08/09 06:39:21;;;;;;;12.15;2.97;;;;;;;;;;4358851;33;20174;-79
2021/08/09 06:41:47;;;;;;;10.50;2.83;;;;;;;;;;4359155;33;20155;-80
2021/08/09 06:44:12;;;;;;;6.93;2.50;;;;;;;;;;4356503;32;20238;-77
2021/08/09 06:46:37;;;;;;;7.03;2.50;;;;;;;;;;4342530;33;20643;-78
2021/08/09 06:49:04;;;;;;;14.15;3.03;;;;;;;;;;4346328;33;20569;-78
2021/08/09 06:51:29;;;;;;;6.82;2.20;;;;;;;;;;4352682;33;20250;-77
2021/08/09 06:53:55;;;;;;;15.82;2.53;;;;;;;;;;4355931;33;20190;-78
2021/08/09 06:56:21;;;;;;;11.15;2.53;;;;;;;;;;4345480;33;20159;-79
2021/08/09 06:58:46;;;;;;;12.27;2.22;;;;;;;;;;4338381;32;20178;-78
2021/08/09 07:01:13;;;;;;;7.40;2.33;;;;;;;;;;4346371;33;20152;-80
2021/08/09 07:03:46;;;;;;;7.68;2.42;;;;;;;;;;4346473;33;20154;-79
2021/08/09 07:06:21;;;;;;;9.05;2.25;;;;;;;;;;4360822;32;20286;-79
2021/08/09 07:08:48;;;;;;;7.50;2.20;;;;;;;;;;4340178;33;20160;-78
2021/08/09 07:11:13;;;;;;;9.48;2.20;;;;;;;;;;4336574;33;20193;-80
2021/08/09 07:13:39;;;;;;;7.72;2.22;;;;;;;;;;4348587;33;20577;-79
2021/08/09 07:16:04;;;;;;;8.80;2.50;;;;;;;;;;4348712;33;20671;-77
2021/08/09 07:18:29;;;;;;;6.03;2.20;;;;;;;;;;4348526;33;20231;-80
2021/08/09 07:20:54;;;;;;;8.13;2.00;;;;;;;;;;4347670;33;20229;-77
2021/08/09 07:23:29;;;;;;;10.82;2.28;;;;;;;;;;4341246;33;20159;-78
2021/08/09 07:25:54;;;;;;;10.35;2.22;;;;;;;;;;4348637;33;20194;-78
2021/08/09 07:28:19;;;;;;;6.97;2.60;;;;;;;;;;4360976;32;20155;-79
2021/08/09 07:30:44;;;;;;;9.82;2.25;;;;;;;;;;4359374;32;20253;-78
2021/08/09 07:33:10;;;;;;;7.78;2.05;;;;;;;;;;4348730;33;20158;-78
2021/08/09 07:35:36;;;;;;;8.75;2.20;;;;;;;;;;4342873;33;20179;-78
2021/08/09 07:38:01;;;;;;;6.72;2.28;;;;;;;;;;4349984;33;20190;-79
2021/08/09 07:40:29;;;;;;;8.18;2.10;;;;;;;;;;4343540;33;20163;-78
2021/08/09 07:42:55;;;;;;;8.65;2.30;;;;;;;;;;4333747;33;20170;-80
2021/08/09 07:45:23;;;;;;;8.13;2.12;;;;;;;;;;4352920;33;20180;-79
2021/08/09 07:47:57;;;;;;;9.82;2.33;;;;;;;;;;4344890;33;20185;-78
2021/08/09 07:50:22;;;;;;;7.75;2.22;;;;;;;;;;4335871;33;20204;-78
2021/08/09 07:52:51;;;;;;;7.97;2.37;;;;;;;;;;4341992;33;20159;-79
2021/08/09 07:55:16;;;;;;;8.75;1.80;;;;;;;;;;4339654;33;20218;-80
2021/08/09 07:57:42;;;;;;;9.18;2.25;;;;;;;;;;4343111;33;20226;-80
2021/08/09 08:00:08;;;;;;;11.40;2.35;;;;;;;;;;4338875;33;20556;-79
2021/08/09 08:02:34;;;;;;;9.48;2.22;;;;;;;;;;4334170;33;20166;-80
2021/08/09 08:04:59;;;;;;;10.65;2.30;;;;;;;;;;4336748;33;20163;-79
2021/08/09 08:07:24;;;;;;;6.87;2.20;;;;;;;;;;4346653;33;20191;-81
2021/08/09 08:10:06;;;;;;;9.30;2.85;;;;;;;;;;4333954;33;20605;-79
2021/08/09 08:12:31;;;;;;;7.40;2.30;;;;;;;;;;4333309;33;20233;-78
2021/08/09 08:14:57;;;;;;;9.02;2.05;;;;;;;;;;4346939;33;20135;-79
2021/08/09 08:17:34;;;;;;;6.00;2.05;;;;;;;;;;4333373;33;20187;-78
2021/08/09 08:19:59;;;;;;;8.30;2.42;;;;;;;;;;4344366;33;20163;-78
2021/08/09 08:22:24;;;;;;;5.45;2.30;;;;;;;;;;4348018;33;20232;-78
2021/08/09 08:24:51;;;;;;;6.75;2.28;;;;;;;;;;4347880;33;20159;-79
2021/08/09 08:27:16;;;;;;;7.93;2.53;;;;;;;;;;4348135;33;20160;-76
2021/08/09 08:29:44;;;;;;;10.70;2.80;;;;;;;;;;4360361;32;20167;-78
2021/08/09 08:32:12;;;;;;;10.05;2.47;;;;;;;;;;4346000;33;20357;-80
2021/08/09 08:34:38;;;;;;;7.47;2.37;;;;;;;;;;4345070;33;20544;-79
2021/08/09 08:37:03;;;;;;;7.90;2.30;;;;;;;;;;4351633;32;20167;-78
2021/08/09 08:39:29;;;;;;;7.95;2.42;;;;;;;;;;4354987;33;20197;-78
2021/08/09 08:41:57;;;;;;;5.20;2.00;;;;;;;;;;4346499;33;20182;-78
2021/08/09 08:44:22;;;;;;;9.07;2.50;;;;;;;;;;4337253;33;20677;-78
2021/08/09 08:46:48;;;;;;;5.85;2.22;;;;;;;;;;4333567;33;20191;-78
2021/08/09 08:49:15;;;;;;;11.60;2.33;;;;;;;;;;4332996;33;20505;-79
2021/08/09 08:51:41;;;;;;;8.60;2.50;;;;;;;;;;4333281;33;20596;-78
2021/08/09 08:54:11;;;;;;;6.75;2.37;;;;;;;;;;4332861;33;20217;-79
2021/08/09 08:56:39;;;;;;;6.82;2.58;;;;;;;;;;4333075;33;20172;-78
2021/08/09 08:59:11;;;;;;;6.50;2.58;;;;;;;;;;4346495;33;20685;-79
2021/08/09 09:01:37;;;;;;;7.57;2.33;;;;;;;;;;4332879;33;20178;-80
2021/08/09 09:04:22;;;;;;;7.62;2.67;;;;;;;;;;4337083;33;20166;-77
2021/08/09 09:07:07;;;;;;;7.28;2.95;;;;;;;;;;4355591;32;20209;-79
2021/08/09 09:09:37;;;;;;;5.45;2.75;;;;;;;;;;4337437;33;20174;-79
2021/08/09 09:12:16;;;;;;;5.65;2.35;;;;;;;;;;4359445;33;20495;-77
2021/08/09 09:14:41;;;;;;;7.30;2.70;;;;;;;;;;4360358;32;20222;-74
2021/08/09 09:17:07;;;;;;;8.32;2.87;;;;;;;;;;4347085;33;20163;-78
2021/08/09 09:19:51;;;;;;;7.10;2.67;;;;;;;;;;4356336;32;20197;-76
2021/08/09 09:22:20;;;;;;;7.20;2.80;;;;;;;;;;4356218;32;20158;-79
2021/08/09 09:24:48;;;;;;;5.68;2.50;;;;;;;;;;4359506;32;20198;-78
2021/08/09 09:27:25;;;;;;;5.20;2.50;;;;;;;;;;4359398;32;20160;-78
2021/08/09 09:29:50;;;;;;;4.93;2.10;;;;;;;;;;4347112;33;20163;-79
2021/08/09 09:32:18;;;;;;;7.22;2.28;;;;;;;;;;4344106;32;20222;-79
2021/08/09 09:35:04;;;;;;;7.60;2.20;;;;;;;;;;4365858;32;20158;-79
2021/08/09 09:37:38;;;;;;;3.60;1.92;;;;;;;;;;4359231;32;20190;-79
2021/08/09 09:40:04;;;;;;;21.55;4.50;;;;;;;;;;4356667;32;20185;-78
2021/08/09 09:42:36;;;;;;;9.48;2.25;;;;;;;;;;4356338;32;20162;-77
2021/08/09 09:45:21;;;;;;;5.82;1.83;;;;;;;;;;4339047;33;20229;-77
2021/08/09 09:47:59;;;;;;;4.25;1.87;;;;;;;;;;4332916;33;20156;-79
2021/08/09 09:50:24;;;;;;;6.62;2.00;;;;;;;;;;4337500;33;20185;-78
2021/08/09 09:52:55;;;;;;;4.43;1.90;;;;;;;;;;4346772;33;20237;-78
2021/08/09 09:55:20;;;;;;;4.20;2.00;;;;;;;;;;4354254;33;20221;-80
2021/08/09 09:57:48;;;;;;;3.12;1.60;;;;;;;;;;4346637;33;20159;-78
2021/08/09 10:00:17;;;;;;;6.72;1.98;;;;;;;;;;4350198;32;20197;-78
2021/08/09 10:02:46;;;;;;;5.10;2.05;;;;;;;;;;4331885;33;20189;-78
2021/08/09 10:05:13;;;;;;;6.25;1.75;;;;;;;;;;4345541;33;20159;-79
2021/08/09 10:07:39;;;;;;;7.35;2.17;;;;;;;;;;4346538;33;20163;-78
2021/08/09 10:10:09;;;;;;;6.40;2.22;;;;;;;;;;4346277;33;20166;-78
2021/08/09 10:12:38;;;;;;;4.50;2.40;;;;;;;;;;4346431;33;20158;-79
2021/08/09 10:15:04;;;;;;;5.75;2.70;;;;;;;;;;4345480;33;20189;-78
2021/08/09 10:17:36;;;;;;;8.80;2.47;;;;;;;;;;4332919;33;20164;-79
2021/08/09 10:20:04;;;;;;;6.15;2.15;;;;;;;;;;4335346;33;20600;-79
2021/08/09 10:22:33;;;;;;;3.60;1.83;;;;;;;;;;4339602;33;20155;-79
2021/08/09 10:24:59;;;;;;;3.17;1.85;;;;;;;;;;4346460;33;20155;-75
2021/08/09 10:27:43;;;;;;;7.00;1.85;;;;;;;;;;4346348;33;20621;-78
2021/08/09 10:30:11;;;;;;;5.37;1.77;;;;;;;;;;4346344;33;20155;-78
2021/08/09 10:32:50;;;;;;;4.37;1.80;;;;;;;;;;4357213;33;20224;-77
2021/08/09 10:35:55;;;;;;;4.55;1.80;;;;;;;;;;4348261;33;20217;-79
2021/08/09 10:38:22;;;;;;;4.30;1.90;;;;;;;;;;4362915;32;20159;-79
2021/08/09 10:40:53;;;;;;;4.37;1.60;;;;;;;;;;4361722;32;20246;-77
2021/08/09 10:43:19;;;;;;;7.18;1.92;;;;;;;;;;4346855;33;20183;-76
2021/08/09 10:45:45;;;;;;;3.50;1.75;;;;;;;;;;4357111;32;20167;-78
2021/08/09 10:48:11;;;;;;;4.47;1.80;;;;;;;;;;4344831;33;20508;-77
2021/08/09 10:50:40;;;;;;;5.93;2.10;;;;;;;;;;4342313;33;20178;-78
2021/08/09 10:53:25;;;;;;;4.12;1.85;;;;;;;;;;4347962;33;20209;-81
2021/08/09 10:55:54;;;;;;;7.43;2.17;;;;;;;;;;4359119;32;20159;-79
2021/08/09 10:58:38;;;;;;;2.72;1.90;;;;;;;;;;4357030;33;20226;-76
2021/08/09 11:01:06;;;;;;;6.45;2.00;;;;;;;;;;4354991;32;20186;-77
2021/08/09 11:03:54;;;;;;;4.07;2.10;;;;;;;;;;4346212;33;20167;-79
2021/08/09 11:06:55;;;;;;;7.22;2.10;;;;;;;;;;4332812;33;20234;-80
2021/08/09 11:09:33;;;;;;;4.28;2.10;;;;;;;;;;4337153;33;20555;-79
2021/08/09 11:12:30;;;;;;;5.22;2.00;;;;;;;;;;4332690;33;20767;-77
2021/08/09 11:15:03;;;;;;;4.90;2.12;;;;;;;;;;4355860;32;20533;-79
2021/08/09 11:17:29;;;;;;;2.62;2.03;;;;;;;;;;4355990;33;20186;-76
2021/08/09 11:20:13;;;;;;;4.85;2.20;;;;;;;;;;4346702;33;20167;-78
2021/08/09 11:22:39;;;;;;;4.93;2.45;;;;;;;;;;4351188;32;20183;-77
2021/08/09 11:25:25;;;;;;;5.85;2.35;;;;;;;;;;4346289;33;20202;-79
2021/08/09 11:28:22;;;;;;;2.85;2.28;;;;;;;;;;4344100;33;20286;-79
2021/08/09 11:30:48;;;;;;;4.55;2.47;;;;;;;;;;4346159;33;20163;-78
2021/08/09 11:33:33;;;;;;;10.35;2.80;;;;;;;;;;4346394;32;20202;-78
2021/08/09 11:36:02;;;;;;;3.95;2.15;;;;;;;;;;4349270;32;20189;-77
2021/08/09 11:38:37;;;;;;;5.85;2.50;;;;;;;;;;4335217;33;20159;-79
2021/08/09 11:41:05;;;;;;;6.12;1.85;;;;;;;;;;4354312;32;20194;-78
2021/08/09 11:43:31;;;;;;;4.32;1.65;;;;;;;;;;4361466;32;20237;-80
2021/08/09 11:46:04;;;;;;;5.05;2.33;;;;;;;;;;4355446;32;20619;-75
2021/08/09 11:48:31;;;;;;;6.45;1.90;;;;;;;;;;4348722;33;20286;-77
2021/08/09 11:51:07;;;;;;;5.47;1.95;;;;;;;;;;4348271;33;20155;-79
2021/08/09 11:53:33;;;;;;;4.70;1.85;;;;;;;;;;4349094;33;20195;-78
2021/08/09 11:56:05;;;;;;;4.05;1.80;;;;;;;;;;4362313;32;20200;-75
2021/08/09 11:58:31;;;;;;;3.55;1.60;;;;;;;;;;4348384;33;20182;-78
2021/08/09 12:00:56;;;;;;;4.20;1.73;;;;;;;;;;4347807;33;20234;-79
2021/08/09 12:03:25;;;;;;;2.97;1.58;;;;;;;;;;4345960;33;20182;-79
2021/08/09 12:05:50;;;;;;;6.70;1.70;;;;;;;;;;4345717;33;20156;-76
2021/08/09 12:08:19;;;;;;;3.33;1.92;;;;;;;;;;4346339;33;20178;-77
2021/08/09 12:10:47;;;;;;;4.57;1.80;;;;;;;;;;4357837;32;20167;-79
2021/08/09 12:13:24;;;;;;;4.05;1.65;;;;;;;;;;4350687;33;20255;-79
2021/08/09 12:16:08;;;;;;;4.18;1.70;;;;;;;;;;4347385;33;20127;-77
2021/08/09 12:18:33;;;;;;;2.85;1.60;;;;;;;;;;4357828;33;20230;-74
2021/08/09 12:21:12;;;;;;;2.25;1.62;;;;;;;;;;4346634;32;20162;-76
2021/08/09 12:23:57;;;;;;;5.10;2.20;;;;;;;;;;4346433;33;20234;-76
2021/08/09 12:26:30;;;;;;;3.72;1.70;;;;;;;;;;4346666;33;20166;-79
2021/08/09 12:28:56;;;;;;;3.55;1.70;;;;;;;;;;4360246;32;20163;-72
2021/08/09 12:31:28;;;;;;;3.15;1.98;;;;;;;;;;4347580;33;20194;-78
2021/08/09 12:33:57;;;;;;;3.05;1.70;;;;;;;;;;4347618;33;20229;-78
2021/08/09 12:36:22;;;;;;;8.82;2.00;;;;;;;;;;4347520;33;20249;-78
2021/08/09 12:38:48;;;;;;;3.87;1.87;;;;;;;;;;4347530;33;20661;-77
2021/08/09 12:41:23;;;;;;;5.07;1.90;;;;;;;;;;4347845;33;20616;-76
2021/08/09 12:43:48;;;;;;;4.45;1.70;;;;;;;;;;4360122;32;20162;-78
2021/08/09 12:46:13;;;;;;;4.75;1.87;;;;;;;;;;4359358;33;20189;-78
2021/08/09 12:48:44;;;;;;;2.90;1.65;;;;;;;;;;4361584;32;20158;-78
2021/08/09 12:51:09;;;;;;;6.05;1.65;;;;;;;;;;4360272;32;20163;-79
2021/08/09 12:53:35;;;;;;;5.35;2.28;;;;;;;;;;4371552;32;20225;-78
2021/08/09 12:56:11;;;;;;;9.10;2.72;;;;;;;;;;4359888;32;20201;-80
2021/08/09 12:58:58;;;;;;;5.07;2.47;;;;;;;;;;4372378;32;20198;-77
2021/08/09 13:05:17;;;;;;;;;;;;;;;;;;;;;
2021/08/09 13:07:45;;;;;;;8.82;3.35;;;;;;;;;;4341636;33;20230;-79
2021/08/09 13:10:21;;;;;;;8.52;4.35;;;;;;;;;;4335400;33;20190;-79
2021/08/09 13:15:54;;;;;;;8.63;3.67;;;;;;;;;;4285757;33;20653;-81
2021/08/09 13:21:37;;;;;;;8.10;2.55;;;;;;;;;;4285909;33;20237;-80
2021/08/09 13:24:40;;;;;;;5.07;2.92;;;;;;;;;;4343681;33;20181;-80
2021/08/09 13:27:55;;;;;;;6.07;2.42;;;;;;;;;;4285846;33;20226;-80
2021/08/09 13:37:16;;;;;;;;;;;;;;;;;;;;;
2021/08/09 13:39:53;;;;;;;4.82;1.87;;;;;;;;;;4257085;33;20157;-81
2021/08/09 13:42:19;;;;;;;4.22;1.87;;;;;;;;;;4280180;33;20643;-81
2021/08/09 13:44:50;;;;;;;4.32;1.95;;;;;;;;;;4327713;33;20218;-80
2021/08/09 13:47:16;;;;;;;3.42;1.60;;;;;;;;;;4336218;33;20199;-81
2021/08/09 13:49:44;;;;;;;3.67;1.70;;;;;;;;;;4355776;33;20151;-79
2021/08/09 13:52:10;;;;;;;4.97;1.83;;;;;;;;;;4348116;33;20167;-78
2021/08/09 13:54:36;;;;;;;5.22;2.00;;;;;;;;;;4348901;32;20267;-78
2021/08/09 13:57:01;;;;;;;5.97;2.12;;;;;;;;;;4345800;33;20516;-79
2021/08/09 13:59:26;;;;;;;4.95;2.00;;;;;;;;;;4331553;33;20234;-78
2021/08/09 14:01:54;;;;;;;4.97;1.92;;;;;;;;;;4348254;33;20229;-79
2021/08/09 14:04:20;;;;;;;4.12;2.00;;;;;;;;;;4358001;32;20163;-79
2021/08/09 14:06:52;;;;;;;4.65;2.30;;;;;;;;;;4350060;32;20786;-79
2021/08/09 14:09:19;;;;;;;6.57;2.60;;;;;;;;;;4351978;32;20168;-78
2021/08/09 14:11:44;;;;;;;4.03;2.60;;;;;;;;;;4346241;33;20232;-80
2021/08/09 14:14:15;;;;;;;6.72;2.78;;;;;;;;;;4357564;33;20593;-79
2021/08/09 14:16:41;;;;;;;5.53;2.70;;;;;;;;;;4342528;33;20167;-77
2021/08/09 14:19:12;;;;;;;5.05;1.92;;;;;;;;;;4338044;33;20220;-77
2021/08/09 14:21:37;;;;;;;5.82;2.28;;;;;;;;;;4358409;33;20143;-80
2021/08/09 14:24:04;;;;;;;6.15;2.25;;;;;;;;;;4345139;33;20318;-80
2021/08/09 14:26:30;;;;;;;5.47;2.10;;;;;;;;;;4363454;32;20156;-77
2021/08/09 14:28:57;;;;;;;6.65;2.28;;;;;;;;;;4350617;33;20237;-82
2021/08/09 14:31:22;;;;;;;4.07;1.87;;;;;;;;;;4347538;33;20243;-79
2021/08/09 14:33:47;;;;;;;6.75;2.17;;;;;;;;;;4331270;33;20160;-80
2021/08/09 14:36:13;;;;;;;6.90;2.53;;;;;;;;;;4330387;33;20202;-77
2021/08/09 14:38:39;;;;;;;4.72;2.50;;;;;;;;;;4330648;33;20163;-79
2021/08/09 14:41:04;;;;;;;6.55;2.30;;;;;;;;;;4339856;33;20192;-80
2021/08/09 14:43:30;;;;;;;5.37;2.65;;;;;;;;;;4359820;33;20473;-80
2021/08/09 14:46:03;;;;;;;7.70;2.90;;;;;;;;;;4335359;33;20540;-79
2021/08/09 14:48:29;;;;;;;6.82;2.40;;;;;;;;;;4346189;33;20195;-74
2021/08/09 14:50:54;;;;;;;7.93;2.72;;;;;;;;;;4355543;32;20163;-79
2021/08/09 14:53:25;;;;;;;7.45;2.47;;;;;;;;;;4331283;33;20167;-78
2021/08/09 14:55:50;;;;;;;3.53;2.15;;;;;;;;;;4369819;32;20512;-80
2021/08/09 14:58:16;;;;;;;7.35;2.90;;;;;;;;;;4358454;33;20216;-78
2021/08/09 15:00:49;;;;;;;6.57;2.47;;;;;;;;;;4351107;33;20166;-79
2021/08/09 15:03:17;;;;;;;7.87;2.65;;;;;;;;;;4348766;33;20263;-77
2021/08/09 15:05:43;;;;;;;5.05;2.50;;;;;;;;;;4346011;33;20198;-75
2021/08/09 15:08:11;;;;;;;4.97;2.15;;;;;;;;;;4345986;33;20561;-78
2021/08/09 15:10:36;;;;;;;4.93;2.45;;;;;;;;;;4346111;33;20216;-78
2021/08/09 15:13:04;;;;;;;5.57;2.35;;;;;;;;;;4345814;33;20151;-79
2021/08/09 15:15:39;;;;;;;9.48;2.50;;;;;;;;;;4358335;33;20159;-79
2021/08/09 15:18:08;;;;;;;7.12;2.60;;;;;;;;;;4344332;33;20159;-79
2021/08/09 15:20:33;;;;;;;4.90;2.10;;;;;;;;;;4346409;33;20155;-80
2021/08/09 15:23:02;;;;;;;8.02;2.65;;;;;;;;;;4359407;32;20167;-79
2021/08/09 15:25:30;;;;;;;6.85;2.22;;;;;;;;;;4355347;32;20155;-77